sensor_id;sensor_type;location;lat;lon;timestamp;P1;durP1;ratioP1;P2;durP2;ratioP2
50363;SDS011;36272;59.400;17.982;2023-02-04T00:00:57;7.88;;;1.80;;
50363;SDS011;36272;59.400;17.982;2023-02-04T00:06:05;5.47;;;1.73;;
50363;SDS011;36272;59.400;17.982;2023-02-04T00:11:07;3.85;;;1.40;;
50363;SDS011;36272;59.400;17.982;2023-02-04T00:16:08;7.28;;;2.50;;
50363;SDS011;36272;59.400;17.982;2023-02-04T00:21:10;8.02;;;2.35;;
50363;SDS011;36272;59.400;17.982;2023-02-04T00:26:12;8.80;;;1.80;;
50363;SDS011;36272;59.400;17.982;2023-02-04T00:31:13;7.82;;;1.90;;
50363;SDS011;36272;59.400;17.982;2023-02-04T00:36:15;5.63;;;1.40;;
50363;SDS011;36272;59.400;17.982;2023-02-04T00:41:17;5.90;;;1.70;;
50363;SDS011;36272;59.400;17.982;2023-02-04T00:46:18;5.72;;;1.50;;
50363;SDS011;36272;59.400;17.982;2023-02-04T00:51:20;5.00;;;1.55;;
50363;SDS011;36272;59.400;17.982;2023-02-04T00:56:21;4.72;;;1.65;;
50363;SDS011;36272;59.400;17.982;2023-02-04T01:01:23;6.32;;;1.70;;
50363;SDS011;36272;59.400;17.982;2023-02-04T01:06:25;5.20;;;1.58;;
50363;SDS011;36272;59.400;17.982;2023-02-04T01:11:28;4.25;;;1.70;;
50363;SDS011;36272;59.400;17.982;2023-02-04T01:16:31;6.68;;;1.70;;
50363;SDS011;36272;59.400;17.982;2023-02-04T01:21:32;8.00;;;1.60;;
50363;SDS011;36272;59.400;17.982;2023-02-04T01:26:34;6.88;;;1.60;;
50363;SDS011;36272;59.400;17.982;2023-02-04T01:31:36;7.28;;;2.13;;
50363;SDS011;36272;59.400;17.982;2023-02-04T01:36:37;4.63;;;1.65;;
50363;SDS011;36272;59.400;17.982;2023-02-04T01:41:39;6.93;;;1.85;;
50363;SDS011;36272;59.400;17.982;2023-02-04T01:46:41;6.53;;;1.58;;
50363;SDS011;36272;59.400;17.982;2023-02-04T01:51:42;6.63;;;1.92;;
50363;SDS011;36272;59.400;17.982;2023-02-04T01:56:45;7.63;;;1.90;;
50363;SDS011;36272;59.400;17.982;2023-02-04T02:01:48;8.35;;;1.75;;
50363;SDS011;36272;59.400;17.982;2023-02-04T02:06:53;9.63;;;1.88;;
50363;SDS011;36272;59.400;17.982;2023-02-04T02:11:59;4.47;;;1.67;;
50363;SDS011;36272;59.400;17.982;2023-02-04T02:17:03;8.18;;;1.60;;
50363;SDS011;36272;59.400;17.982;2023-02-04T02:22:10;7.15;;;1.73;;
50363;SDS011;36272;59.400;17.982;2023-02-04T02:27:17;3.75;;;2.00;;
50363;SDS011;36272;59.400;17.982;2023-02-04T02:32:19;8.05;;;1.90;;
50363;SDS011;36272;59.400;17.982;2023-02-04T02:37:21;7.40;;;1.73;;
50363;SDS011;36272;59.400;17.982;2023-02-04T02:42:22;8.95;;;1.75;;
50363;SDS011;36272;59.400;17.982;2023-02-04T02:47:24;7.85;;;1.52;;
50363;SDS011;36272;59.400;17.982;2023-02-04T02:52:28;6.50;;;1.95;;
50363;SDS011;36272;59.400;17.982;2023-02-04T02:57:30;6.47;;;1.55;;
50363;SDS011;36272;59.400;17.982;2023-02-04T03:02:31;8.63;;;2.08;;
50363;SDS011;36272;59.400;17.982;2023-02-04T03:07:33;3.70;;;1.75;;
50363;SDS011;36272;59.400;17.982;2023-02-04T03:12:35;8.70;;;1.80;;
50363;SDS011;36272;59.400;17.982;2023-02-04T03:17:37;4.80;;;1.90;;
50363;SDS011;36272;59.400;17.982;2023-02-04T03:22:39;6.00;;;1.85;;
50363;SDS011;36272;59.400;17.982;2023-02-04T03:27:41;4.25;;;1.52;;
50363;SDS011;36272;59.400;17.982;2023-02-04T03:32:43;10.65;;;2.17;;
50363;SDS011;36272;59.400;17.982;2023-02-04T03:37:44;5.07;;;1.70;;
50363;SDS011;36272;59.400;17.982;2023-02-04T03:42:51;4.18;;;1.95;;
50363;SDS011;36272;59.400;17.982;2023-02-04T03:47:53;5.55;;;1.85;;
50363;SDS011;36272;59.400;17.982;2023-02-04T03:52:55;6.68;;;2.13;;
50363;SDS011;36272;59.400;17.982;2023-02-04T03:57:56;5.93;;;1.52;;
50363;SDS011;36272;59.400;17.982;2023-02-04T04:02:58;7.40;;;1.83;;
50363;SDS011;36272;59.400;17.982;2023-02-04T04:08:00;4.57;;;1.58;;
50363;SDS011;36272;59.400;17.982;2023-02-04T04:13:01;7.70;;;1.73;;
50363;SDS011;36272;59.400;17.982;2023-02-04T04:18:03;4.78;;;1.23;;
50363;SDS011;36272;59.400;17.982;2023-02-04T04:23:05;8.75;;;1.83;;
50363;SDS011;36272;59.400;17.982;2023-02-04T04:28:06;8.10;;;1.88;;
50363;SDS011;36272;59.400;17.982;2023-02-04T04:33:08;4.35;;;1.50;;
50363;SDS011;36272;59.400;17.982;2023-02-04T04:38:09;7.18;;;1.73;;
50363;SDS011;36272;59.400;17.982;2023-02-04T04:43:11;7.07;;;1.60;;
50363;SDS011;36272;59.400;17.982;2023-02-04T04:48:13;6.53;;;1.50;;
50363;SDS011;36272;59.400;17.982;2023-02-04T04:53:15;10.00;;;1.77;;
50363;SDS011;36272;59.400;17.982;2023-02-04T04:58:16;6.78;;;1.60;;
50363;SDS011;36272;59.400;17.982;2023-02-04T05:03:18;5.38;;;1.45;;
50363;SDS011;36272;59.400;17.982;2023-02-04T05:08:20;6.50;;;2.00;;
50363;SDS011;36272;59.400;17.982;2023-02-04T05:13:22;10.52;;;1.90;;
50363;SDS011;36272;59.400;17.982;2023-02-04T05:18:25;6.82;;;1.90;;
50363;SDS011;36272;59.400;17.982;2023-02-04T05:23:27;8.75;;;1.63;;
50363;SDS011;36272;59.400;17.982;2023-02-04T05:28:28;3.97;;;1.75;;
50363;SDS011;36272;59.400;17.982;2023-02-04T05:33:30;5.47;;;1.52;;
50363;SDS011;36272;59.400;17.982;2023-02-04T05:38:31;8.13;;;1.58;;
50363;SDS011;36272;59.400;17.982;2023-02-04T05:43:33;3.25;;;1.50;;
50363;SDS011;36272;59.400;17.982;2023-02-04T05:48:35;5.78;;;1.40;;
50363;SDS011;36272;59.400;17.982;2023-02-04T05:53:37;6.75;;;1.33;;
50363;SDS011;36272;59.400;17.982;2023-02-04T05:58:38;4.32;;;1.60;;
50363;SDS011;36272;59.400;17.982;2023-02-04T06:03:40;7.55;;;1.50;;
50363;SDS011;36272;59.400;17.982;2023-02-04T06:08:42;5.55;;;1.55;;
50363;SDS011;36272;59.400;17.982;2023-02-04T06:13:43;6.03;;;1.50;;
50363;SDS011;36272;59.400;17.982;2023-02-04T06:18:45;5.18;;;1.45;;
50363;SDS011;36272;59.400;17.982;2023-02-04T06:23:47;6.25;;;1.60;;
50363;SDS011;36272;59.400;17.982;2023-02-04T06:28:48;7.80;;;1.70;;
50363;SDS011;36272;59.400;17.982;2023-02-04T06:33:50;6.93;;;1.88;;
50363;SDS011;36272;59.400;17.982;2023-02-04T06:38:51;6.78;;;1.70;;
50363;SDS011;36272;59.400;17.982;2023-02-04T06:43:53;6.40;;;1.75;;
50363;SDS011;36272;59.400;17.982;2023-02-04T06:48:55;7.32;;;1.50;;
50363;SDS011;36272;59.400;17.982;2023-02-04T06:53:57;5.13;;;1.67;;
50363;SDS011;36272;59.400;17.982;2023-02-04T06:58:59;7.30;;;1.70;;
50363;SDS011;36272;59.400;17.982;2023-02-04T07:04:04;4.03;;;1.45;;
50363;SDS011;36272;59.400;17.982;2023-02-04T07:09:05;8.60;;;1.70;;
50363;SDS011;36272;59.400;17.982;2023-02-04T07:14:07;9.55;;;1.85;;
50363;SDS011;36272;59.400;17.982;2023-02-04T07:19:12;5.05;;;1.23;;
50363;SDS011;36272;59.400;17.982;2023-02-04T07:24:32;3.65;;;1.50;;
50363;SDS011;36272;59.400;17.982;2023-02-04T07:29:33;12.02;;;1.40;;
50363;SDS011;36272;59.400;17.982;2023-02-04T07:34:35;6.10;;;1.80;;
50363;SDS011;36272;59.400;17.982;2023-02-04T07:39:39;4.68;;;2.00;;
50363;SDS011;36272;59.400;17.982;2023-02-04T07:50:41;7.47;;;1.60;;
50363;SDS011;36272;59.400;17.982;2023-02-04T07:55:43;3.75;;;1.50;;
50363;SDS011;36272;59.400;17.982;2023-02-04T08:00:45;9.25;;;1.50;;
50363;SDS011;36272;59.400;17.982;2023-02-04T08:05:47;9.88;;;1.70;;
50363;SDS011;36272;59.400;17.982;2023-02-04T08:10:48;5.93;;;1.42;;
50363;SDS011;36272;59.400;17.982;2023-02-04T08:15:50;5.25;;;1.40;;
50363;SDS011;36272;59.400;17.982;2023-02-04T08:20:52;6.65;;;1.60;;
50363;SDS011;36272;59.400;17.982;2023-02-04T08:25:54;5.20;;;1.50;;
50363;SDS011;36272;59.400;17.982;2023-02-04T08:30:56;6.30;;;1.58;;
50363;SDS011;36272;59.400;17.982;2023-02-04T08:35:59;11.48;;;1.92;;
50363;SDS011;36272;59.400;17.982;2023-02-04T08:41:00;10.68;;;2.00;;
50363;SDS011;36272;59.400;17.982;2023-02-04T08:46:02;8.48;;;1.85;;
50363;SDS011;36272;59.400;17.982;2023-02-04T08:51:10;8.55;;;1.63;;
50363;SDS011;36272;59.400;17.982;2023-02-04T08:56:14;4.28;;;1.23;;
50363;SDS011;36272;59.400;17.982;2023-02-04T09:01:20;7.53;;;1.50;;
50363;SDS011;36272;59.400;17.982;2023-02-04T09:06:22;6.38;;;1.55;;
50363;SDS011;36272;59.400;17.982;2023-02-04T09:11:24;8.48;;;1.88;;
50363;SDS011;36272;59.400;17.982;2023-02-04T09:16:30;6.75;;;1.70;;
50363;SDS011;36272;59.400;17.982;2023-02-04T09:21:32;7.28;;;1.75;;
50363;SDS011;36272;59.400;17.982;2023-02-04T09:26:34;5.68;;;2.00;;
50363;SDS011;36272;59.400;17.982;2023-02-04T09:31:35;3.75;;;1.40;;
50363;SDS011;36272;59.400;17.982;2023-02-04T09:36:41;7.32;;;1.77;;
50363;SDS011;36272;59.400;17.982;2023-02-04T09:41:43;5.82;;;1.75;;
50363;SDS011;36272;59.400;17.982;2023-02-04T09:46:47;2.33;;;1.42;;
50363;SDS011;36272;59.400;17.982;2023-02-04T09:51:51;8.23;;;2.08;;
50363;SDS011;36272;59.400;17.982;2023-02-04T09:56:53;4.00;;;1.40;;
50363;SDS011;36272;59.400;17.982;2023-02-04T10:02:01;5.75;;;1.83;;
50363;SDS011;36272;59.400;17.982;2023-02-04T10:07:14;4.10;;;1.38;;
50363;SDS011;36272;59.400;17.982;2023-02-04T10:12:22;4.30;;;1.38;;
50363;SDS011;36272;59.400;17.982;2023-02-04T10:17:27;11.50;;;1.73;;
50363;SDS011;36272;59.400;17.982;2023-02-04T10:22:29;5.07;;;1.75;;
50363;SDS011;36272;59.400;17.982;2023-02-04T10:27:31;4.05;;;1.67;;
50363;SDS011;36272;59.400;17.982;2023-02-04T10:32:32;4.57;;;1.30;;
50363;SDS011;36272;59.400;17.982;2023-02-04T10:37:34;7.82;;;2.20;;
50363;SDS011;36272;59.400;17.982;2023-02-04T10:42:46;10.27;;;1.98;;
50363;SDS011;36272;59.400;17.982;2023-02-04T10:47:53;6.03;;;1.80;;
50363;SDS011;36272;59.400;17.982;2023-02-04T10:52:57;4.55;;;1.30;;
50363;SDS011;36272;59.400;17.982;2023-02-04T10:58:23;5.28;;;1.90;;
50363;SDS011;36272;59.400;17.982;2023-02-04T11:03:31;9.43;;;1.92;;
50363;SDS011;36272;59.400;17.982;2023-02-04T11:08:33;5.90;;;1.58;;
50363;SDS011;36272;59.400;17.982;2023-02-04T11:13:44;8.60;;;1.77;;
50363;SDS011;36272;59.400;17.982;2023-02-04T11:18:59;7.88;;;1.60;;
50363;SDS011;36272;59.400;17.982;2023-02-04T11:34:28;8.82;;;2.13;;
50363;SDS011;36272;59.400;17.982;2023-02-04T11:39:32;6.53;;;1.85;;
50363;SDS011;36272;59.400;17.982;2023-02-04T11:44:37;7.93;;;2.13;;
50363;SDS011;36272;59.400;17.982;2023-02-04T11:49:38;6.53;;;1.58;;
50363;SDS011;36272;59.400;17.982;2023-02-04T11:54:40;6.55;;;1.80;;
50363;SDS011;36272;59.400;17.982;2023-02-04T11:59:42;8.40;;;2.13;;
50363;SDS011;36272;59.400;17.982;2023-02-04T12:05:18;8.98;;;1.80;;
50363;SDS011;36272;59.400;17.982;2023-02-04T12:10:24;5.55;;;1.50;;
50363;SDS011;36272;59.400;17.982;2023-02-04T12:15:31;7.45;;;2.10;;
50363;SDS011;36272;59.400;17.982;2023-02-04T12:20:37;4.68;;;1.73;;
50363;SDS011;36272;59.400;17.982;2023-02-04T12:25:39;8.32;;;2.05;;
50363;SDS011;36272;59.400;17.982;2023-02-04T12:30:41;10.15;;;1.98;;
50363;SDS011;36272;59.400;17.982;2023-02-04T12:35:43;6.50;;;2.05;;
50363;SDS011;36272;59.400;17.982;2023-02-04T12:40:45;6.15;;;1.63;;
50363;SDS011;36272;59.400;17.982;2023-02-04T12:45:50;4.93;;;1.90;;
50363;SDS011;36272;59.400;17.982;2023-02-04T12:50:51;3.72;;;1.70;;
50363;SDS011;36272;59.400;17.982;2023-02-04T12:55:53;7.15;;;1.90;;
50363;SDS011;36272;59.400;17.982;2023-02-04T13:00:55;8.85;;;2.03;;
50363;SDS011;36272;59.400;17.982;2023-02-04T13:05:57;6.28;;;1.70;;
50363;SDS011;36272;59.400;17.982;2023-02-04T13:10:58;7.78;;;1.88;;
50363;SDS011;36272;59.400;17.982;2023-02-04T13:16:00;9.23;;;2.10;;
50363;SDS011;36272;59.400;17.982;2023-02-04T13:21:02;5.07;;;1.92;;
50363;SDS011;36272;59.400;17.982;2023-02-04T13:26:03;4.45;;;1.55;;
50363;SDS011;36272;59.400;17.982;2023-02-04T13:31:06;5.72;;;1.67;;
50363;SDS011;36272;59.400;17.982;2023-02-04T13:36:08;4.00;;;1.33;;
50363;SDS011;36272;59.400;17.982;2023-02-04T13:41:10;6.45;;;1.80;;
50363;SDS011;36272;59.400;17.982;2023-02-04T13:46:11;6.82;;;2.08;;
50363;SDS011;36272;59.400;17.982;2023-02-04T13:51:19;7.10;;;2.08;;
50363;SDS011;36272;59.400;17.982;2023-02-04T13:56:21;8.18;;;2.30;;
50363;SDS011;36272;59.400;17.982;2023-02-04T14:01:23;4.05;;;1.60;;
50363;SDS011;36272;59.400;17.982;2023-02-04T14:06:25;5.82;;;2.03;;
50363;SDS011;36272;59.400;17.982;2023-02-04T14:11:33;4.45;;;1.80;;
50363;SDS011;36272;59.400;17.982;2023-02-04T14:16:35;5.97;;;2.33;;
50363;SDS011;36272;59.400;17.982;2023-02-04T14:21:36;5.53;;;2.03;;
50363;SDS011;36272;59.400;17.982;2023-02-04T14:26:38;7.60;;;1.92;;
50363;SDS011;36272;59.400;17.982;2023-02-04T14:31:39;7.75;;;2.55;;
50363;SDS011;36272;59.400;17.982;2023-02-04T14:36:41;8.27;;;2.10;;
50363;SDS011;36272;59.400;17.982;2023-02-04T14:41:46;8.23;;;2.40;;
50363;SDS011;36272;59.400;17.982;2023-02-04T14:46:48;9.40;;;2.80;;
50363;SDS011;36272;59.400;17.982;2023-02-04T14:51:49;9.07;;;2.50;;
50363;SDS011;36272;59.400;17.982;2023-02-04T14:57:00;9.23;;;2.50;;
50363;SDS011;36272;59.400;17.982;2023-02-04T15:02:05;8.65;;;2.70;;
50363;SDS011;36272;59.400;17.982;2023-02-04T15:07:07;12.70;;;3.03;;
50363;SDS011;36272;59.400;17.982;2023-02-04T15:12:10;5.90;;;2.60;;
50363;SDS011;36272;59.400;17.982;2023-02-04T15:17:11;7.28;;;2.40;;
50363;SDS011;36272;59.400;17.982;2023-02-04T15:22:18;12.43;;;2.58;;
50363;SDS011;36272;59.400;17.982;2023-02-04T15:27:20;7.53;;;2.75;;
50363;SDS011;36272;59.400;17.982;2023-02-04T15:32:21;6.00;;;3.00;;
50363;SDS011;36272;59.400;17.982;2023-02-04T15:37:24;7.72;;;2.30;;
50363;SDS011;36272;59.400;17.982;2023-02-04T15:42:26;11.85;;;2.70;;
50363;SDS011;36272;59.400;17.982;2023-02-04T15:47:28;19.73;;;3.17;;
50363;SDS011;36272;59.400;17.982;2023-02-04T15:52:30;13.23;;;2.85;;
50363;SDS011;36272;59.400;17.982;2023-02-04T15:57:31;25.02;;;2.97;;
50363;SDS011;36272;59.400;17.982;2023-02-04T16:02:33;13.30;;;2.45;;
50363;SDS011;36272;59.400;17.982;2023-02-04T16:07:34;17.35;;;2.63;;
50363;SDS011;36272;59.400;17.982;2023-02-04T16:12:36;11.98;;;2.80;;
50363;SDS011;36272;59.400;17.982;2023-02-04T16:17:38;22.88;;;2.85;;
50363;SDS011;36272;59.400;17.982;2023-02-04T16:22:40;14.80;;;3.47;;
50363;SDS011;36272;59.400;17.982;2023-02-04T16:27:42;19.80;;;4.35;;
50363;SDS011;36272;59.400;17.982;2023-02-04T16:32:49;17.85;;;4.10;;
50363;SDS011;36272;59.400;17.982;2023-02-04T16:44:05;17.00;;;3.17;;
50363;SDS011;36272;59.400;17.982;2023-02-04T16:54:18;20.67;;;3.10;;
50363;SDS011;36272;59.400;17.982;2023-02-04T16:59:20;24.83;;;3.83;;
50363;SDS011;36272;59.400;17.982;2023-02-04T17:04:23;13.95;;;3.20;;
50363;SDS011;36272;59.400;17.982;2023-02-04T17:09:25;14.00;;;2.58;;
50363;SDS011;36272;59.400;17.982;2023-02-04T17:14:30;15.77;;;2.70;;
50363;SDS011;36272;59.400;17.982;2023-02-04T17:19:31;21.40;;;4.13;;
50363;SDS011;36272;59.400;17.982;2023-02-04T17:24:33;24.00;;;4.57;;
50363;SDS011;36272;59.400;17.982;2023-02-04T17:30:02;27.77;;;5.10;;
50363;SDS011;36272;59.400;17.982;2023-02-04T17:36:07;20.30;;;6.63;;
50363;SDS011;36272;59.400;17.982;2023-02-04T17:46:54;13.35;;;4.88;;
50363;SDS011;36272;59.400;17.982;2023-02-04T17:52:04;13.63;;;4.65;;
50363;SDS011;36272;59.400;17.982;2023-02-04T17:57:16;11.70;;;4.20;;
50363;SDS011;36272;59.400;17.982;2023-02-04T18:02:24;8.27;;;3.83;;
50363;SDS011;36272;59.400;17.982;2023-02-04T18:38:40;14.45;;;4.55;;
50363;SDS011;36272;59.400;17.982;2023-02-04T18:43:48;11.27;;;4.13;;
50363;SDS011;36272;59.400;17.982;2023-02-04T18:49:39;11.57;;;4.28;;
50363;SDS011;36272;59.400;17.982;2023-02-04T18:54:50;10.45;;;4.18;;
50363;SDS011;36272;59.400;17.982;2023-02-04T19:16:56;11.32;;;4.45;;
50363;SDS011;36272;59.400;17.982;2023-02-04T19:27:32;11.45;;;5.00;;
50363;SDS011;36272;59.400;17.982;2023-02-04T19:32:42;18.63;;;4.97;;
50363;SDS011;36272;59.400;17.982;2023-02-04T19:37:46;14.80;;;5.85;;
50363;SDS011;36272;59.400;17.982;2023-02-04T19:42:55;12.55;;;5.30;;
50363;SDS011;36272;59.400;17.982;2023-02-04T19:48:18;15.57;;;5.32;;
50363;SDS011;36272;59.400;17.982;2023-02-04T19:53:26;12.60;;;5.20;;
50363;SDS011;36272;59.400;17.982;2023-02-04T19:58:38;15.05;;;5.78;;
50363;SDS011;36272;59.400;17.982;2023-02-04T20:03:49;18.85;;;6.13;;
50363;SDS011;36272;59.400;17.982;2023-02-04T20:19:18;18.98;;;6.80;;
50363;SDS011;36272;59.400;17.982;2023-02-04T20:24:41;21.63;;;7.22;;
50363;SDS011;36272;59.400;17.982;2023-02-04T20:29:58;19.60;;;7.53;;
50363;SDS011;36272;59.400;17.982;2023-02-04T20:40:31;22.65;;;8.73;;
50363;SDS011;36272;59.400;17.982;2023-02-04T20:45:49;22.75;;;8.45;;
50363;SDS011;36272;59.400;17.982;2023-02-04T20:51:03;19.95;;;8.93;;
50363;SDS011;36272;59.400;17.982;2023-02-04T21:01:32;21.23;;;8.32;;
50363;SDS011;36272;59.400;17.982;2023-02-04T21:06:39;18.95;;;7.53;;
50363;SDS011;36272;59.400;17.982;2023-02-04T21:11:40;17.55;;;7.60;;
50363;SDS011;36272;59.400;17.982;2023-02-04T21:16:42;24.73;;;7.78;;
50363;SDS011;36272;59.400;17.982;2023-02-04T21:21:47;17.02;;;7.50;;
50363;SDS011;36272;59.400;17.982;2023-02-04T21:26:48;25.55;;;8.15;;
50363;SDS011;36272;59.400;17.982;2023-02-04T21:31:50;22.65;;;8.52;;
50363;SDS011;36272;59.400;17.982;2023-02-04T21:41:56;20.15;;;8.10;;
50363;SDS011;36272;59.400;17.982;2023-02-04T21:47:10;26.50;;;8.73;;
50363;SDS011;36272;59.400;17.982;2023-02-04T21:52:12;20.67;;;7.50;;
50363;SDS011;36272;59.400;17.982;2023-02-04T21:57:15;31.08;;;8.00;;
50363;SDS011;36272;59.400;17.982;2023-02-04T22:02:19;17.20;;;7.40;;
50363;SDS011;36272;59.400;17.982;2023-02-04T22:07:21;22.53;;;8.73;;
50363;SDS011;36272;59.400;17.982;2023-02-04T22:12:23;21.80;;;9.23;;
50363;SDS011;36272;59.400;17.982;2023-02-04T22:17:24;25.13;;;9.13;;
50363;SDS011;36272;59.400;17.982;2023-02-04T22:22:26;21.48;;;7.55;;
50363;SDS011;36272;59.400;17.982;2023-02-04T22:27:28;17.85;;;7.25;;
50363;SDS011;36272;59.400;17.982;2023-02-04T22:32:30;18.60;;;7.03;;
50363;SDS011;36272;59.400;17.982;2023-02-04T22:37:31;14.90;;;5.65;;
50363;SDS011;36272;59.400;17.982;2023-02-04T22:42:33;13.77;;;6.05;;
50363;SDS011;36272;59.400;17.982;2023-02-04T22:47:35;15.02;;;6.38;;
50363;SDS011;36272;59.400;17.982;2023-02-04T22:52:36;11.75;;;5.20;;
50363;SDS011;36272;59.400;17.982;2023-02-04T22:57:38;13.27;;;5.82;;
50363;SDS011;36272;59.400;17.982;2023-02-04T23:02:42;11.30;;;4.17;;
50363;SDS011;36272;59.400;17.982;2023-02-04T23:07:44;15.05;;;4.97;;
50363;SDS011;36272;59.400;17.982;2023-02-04T23:12:46;16.65;;;4.80;;
50363;SDS011;36272;59.400;17.982;2023-02-04T23:17:47;11.82;;;4.93;;
50363;SDS011;36272;59.400;17.982;2023-02-04T23:22:49;11.10;;;4.30;;
50363;SDS011;36272;59.400;17.982;2023-02-04T23:27:51;12.45;;;4.22;;
50363;SDS011;36272;59.400;17.982;2023-02-04T23:32:52;12.52;;;3.70;;
50363;SDS011;36272;59.400;17.982;2023-02-04T23:37:54;9.77;;;4.20;;
50363;SDS011;36272;59.400;17.982;2023-02-04T23:42:59;7.60;;;3.42;;
50363;SDS011;36272;59.400;17.982;2023-02-04T23:48:00;10.52;;;3.40;;
50363;SDS011;36272;59.400;17.982;2023-02-04T23:53:02;6.30;;;3.13;;
50363;SDS011;36272;59.400;17.982;2023-02-04T23:58:04;8.07;;;3.03;;
